Lilly, PA (15938)

10:19 AM EDT del 23 Settembre 2014 (GMT -0400)
Portage Boro | Change Station
CLOSE
Current Station
Stazione meteo personale
Location: Portage, PA
Altitudine: 1690 ft
Stazioni meteo nelle vicinanze

Alt. 1690 ft 40.39 °N, 78.67 °W | Updated 6 seconds ago

Sereno
Sereno
54.1 °F
Sembra 54.1 °F
N
0.0
Vento Variabile Vento da ESE
Gusts 0.0 mph

Oggi
Massima -- | Minima -- °F
--% Possibilità di precip.
Ieri
Massima -- | Minima -- °F
Precip. -- in
7:03 AM 7:09 PM
Luna calante, 0% visible
Pressione 30.38 in
Visibilità 10.0 miglia
Nuvole Sereno
Punto di rugiada 43 °F
Umidità 65%
Piovosità 0.00 in
Spessore del manto nevoso Non disponibile.
Raggi UV 3 fuori da 12
Polline 2.70 fuori da 12
Qualità dell'aria Non disponibile.
Flu Activity Non disponibile.
METAR KJST 231354Z AUTO 00000KT 10SM CLR 10/04 A3035 RMK AO2 SLP286 T01000044

More Conditions Fewer Conditions

Pressione 30.38 in
Visibilità 10.0 miglia
Nuvole Sereno
Punto di rugiada 43 °F
Umidità 65%
Piovosità 0.00 in
Spessore del manto nevoso Non disponibile.
Raggi UV 3 fuori da 12
Polline 2.70 fuori da 12
Qualità dell'aria Non disponibile.
Flu Activity Non disponibile.
METAR KJST 231354Z AUTO 00000KT 10SM CLR 10/04 A3035 RMK AO2 SLP286 T01000044

More Conditions Fewer Conditions

10-Day Weather Forecast

Almanac

Astronomia

Sep. 23, 2014 Alba Tramonto
Ora attuale 07:03 EDT 19:09 EDT
Crepuscolo civile 06:35 EDT 19:37 EDT
Crepuscolo nautico 06:03 EDT 20:08 EDT
Crepuscolo astronomico 05:31 EDT 20:41 EDT
Luna 06:25 EDT 18:47 EDT
Estensione della luce visibile 13h 01m
Lunghezza del giorno
12h 06m
Tomorrow will be 2m 39s shorter.
Luna calante, 0% of the Moon is Illuminated
Oggi
Luna calante
Set 24
Nuovo
Ott 1
Primo quarto
Ott 8
Luna piena
Ott 15
Ultimo quarto

Gli estremi di oggi

State Highs State Lows

Community

WunderPhotos

Upload Photos

1,755,693 foto caricate!

Nearby

Profondità neve

Stazione Profondità Altitudine
Non sono state evidenziate nuove nevicate

Attività sismica

Città  Distanza Mag. Data & Ora
Non sono state riportate attività sismiche nelle vicinanze.
Minimo Magnitudo Mostrato è 2.5.

Temperature delle acque costiere

Località Temperatura
Nessun dato dalle stazioni

Stazioni meteo nelle vicinanze